sensor_id;sensor_type;location;lat;lon;timestamp;P1;durP1;ratioP1;P2;durP2;ratioP2
14907;SDS011;7545;52.092;7.006;2023-03-14T00:01:08;4.13;;;1.63;;
14907;SDS011;7545;52.092;7.006;2023-03-14T00:03:42;6.70;;;1.65;;
14907;SDS011;7545;52.092;7.006;2023-03-14T00:06:08;5.05;;;1.67;;
14907;SDS011;7545;52.092;7.006;2023-03-14T00:08:34;6.38;;;1.80;;
14907;SDS011;7545;52.092;7.006;2023-03-14T00:11:11;3.47;;;1.60;;
14907;SDS011;7545;52.092;7.006;2023-03-14T00:13:41;3.83;;;2.05;;
14907;SDS011;7545;52.092;7.006;2023-03-14T00:16:08;3.03;;;1.42;;
14907;SDS011;7545;52.092;7.006;2023-03-14T00:18:36;3.67;;;1.40;;
14907;SDS011;7545;52.092;7.006;2023-03-14T00:21:03;8.85;;;1.80;;
14907;SDS011;7545;52.092;7.006;2023-03-14T00:23:30;3.72;;;1.50;;
14907;SDS011;7545;52.092;7.006;2023-03-14T00:26:05;4.00;;;1.73;;
14907;SDS011;7545;52.092;7.006;2023-03-14T00:28:42;4.90;;;1.95;;
14907;SDS011;7545;52.092;7.006;2023-03-14T00:31:09;5.70;;;1.67;;
14907;SDS011;7545;52.092;7.006;2023-03-14T00:33:36;3.08;;;1.55;;
14907;SDS011;7545;52.092;7.006;2023-03-14T00:36:03;5.75;;;2.03;;
14907;SDS011;7545;52.092;7.006;2023-03-14T00:38:34;4.03;;;1.50;;
14907;SDS011;7545;52.092;7.006;2023-03-14T00:41:07;3.42;;;1.25;;
14907;SDS011;7545;52.092;7.006;2023-03-14T00:43:35;3.80;;;1.50;;
14907;SDS011;7545;52.092;7.006;2023-03-14T00:46:01;2.70;;;1.20;;
14907;SDS011;7545;52.092;7.006;2023-03-14T00:48:27;6.38;;;1.55;;
14907;SDS011;7545;52.092;7.006;2023-03-14T00:50:52;2.58;;;1.23;;
14907;SDS011;7545;52.092;7.006;2023-03-14T00:53:18;4.40;;;1.50;;
14907;SDS011;7545;52.092;7.006;2023-03-14T00:55:44;4.05;;;1.45;;
14907;SDS011;7545;52.092;7.006;2023-03-14T00:58:11;5.10;;;2.03;;
14907;SDS011;7545;52.092;7.006;2023-03-14T01:00:38;8.02;;;1.30;;
14907;SDS011;7545;52.092;7.006;2023-03-14T01:03:05;4.00;;;1.35;;
14907;SDS011;7545;52.092;7.006;2023-03-14T01:05:30;5.53;;;1.48;;
14907;SDS011;7545;52.092;7.006;2023-03-14T01:07:56;3.92;;;1.38;;
14907;SDS011;7545;52.092;7.006;2023-03-14T01:10:22;5.28;;;1.40;;
14907;SDS011;7545;52.092;7.006;2023-03-14T01:12:48;3.47;;;1.15;;
14907;SDS011;7545;52.092;7.006;2023-03-14T01:15:14;3.78;;;1.52;;
14907;SDS011;7545;52.092;7.006;2023-03-14T01:17:40;3.08;;;1.45;;
14907;SDS011;7545;52.092;7.006;2023-03-14T01:20:07;2.03;;;1.30;;
14907;SDS011;7545;52.092;7.006;2023-03-14T01:22:35;3.22;;;1.10;;
14907;SDS011;7545;52.092;7.006;2023-03-14T01:25:04;2.88;;;0.90;;
14907;SDS011;7545;52.092;7.006;2023-03-14T01:27:30;5.82;;;1.67;;
14907;SDS011;7545;52.092;7.006;2023-03-14T01:29:55;5.30;;;1.45;;
14907;SDS011;7545;52.092;7.006;2023-03-14T01:32:21;1.98;;;1.00;;
14907;SDS011;7545;52.092;7.006;2023-03-14T01:34:46;4.60;;;1.23;;
14907;SDS011;7545;52.092;7.006;2023-03-14T01:37:12;3.15;;;1.13;;
14907;SDS011;7545;52.092;7.006;2023-03-14T01:39:38;4.70;;;1.20;;
14907;SDS011;7545;52.092;7.006;2023-03-14T01:42:03;3.72;;;1.38;;
14907;SDS011;7545;52.092;7.006;2023-03-14T01:47:21;2.50;;;1.02;;
14907;SDS011;7545;52.092;7.006;2023-03-14T01:49:48;5.88;;;1.42;;
14907;SDS011;7545;52.092;7.006;2023-03-14T01:52:36;3.15;;;1.23;;
14907;SDS011;7545;52.092;7.006;2023-03-14T01:55:12;2.67;;;1.30;;
14907;SDS011;7545;52.092;7.006;2023-03-14T01:57:44;3.78;;;0.90;;
14907;SDS011;7545;52.092;7.006;2023-03-14T02:00:17;5.57;;;1.35;;
14907;SDS011;7545;52.092;7.006;2023-03-14T02:02:49;5.78;;;0.90;;
14907;SDS011;7545;52.092;7.006;2023-03-14T02:05:19;3.88;;;1.45;;
14907;SDS011;7545;52.092;7.006;2023-03-14T02:07:49;4.32;;;1.33;;
14907;SDS011;7545;52.092;7.006;2023-03-14T02:10:17;2.55;;;1.05;;
14907;SDS011;7545;52.092;7.006;2023-03-14T02:12:45;3.95;;;1.35;;
14907;SDS011;7545;52.092;7.006;2023-03-14T02:15:12;4.60;;;1.02;;
14907;SDS011;7545;52.092;7.006;2023-03-14T02:17:40;6.43;;;1.42;;
14907;SDS011;7545;52.092;7.006;2023-03-14T02:23:05;4.43;;;1.40;;
14907;SDS011;7545;52.092;7.006;2023-03-14T02:28:18;4.57;;;1.00;;
14907;SDS011;7545;52.092;7.006;2023-03-14T02:30:45;3.50;;;1.27;;
14907;SDS011;7545;52.092;7.006;2023-03-14T02:33:12;6.45;;;1.10;;
14907;SDS011;7545;52.092;7.006;2023-03-14T02:35:49;3.22;;;1.00;;
14907;SDS011;7545;52.092;7.006;2023-03-14T02:38:31;6.63;;;1.58;;
14907;SDS011;7545;52.092;7.006;2023-03-14T02:41:02;2.67;;;1.38;;
14907;SDS011;7545;52.092;7.006;2023-03-14T02:43:28;6.45;;;1.65;;
14907;SDS011;7545;52.092;7.006;2023-03-14T02:45:53;3.30;;;1.13;;
14907;SDS011;7545;52.092;7.006;2023-03-14T02:48:27;2.00;;;0.82;;
14907;SDS011;7545;52.092;7.006;2023-03-14T02:50:57;3.05;;;1.10;;
14907;SDS011;7545;52.092;7.006;2023-03-14T02:53:28;4.40;;;1.08;;
14907;SDS011;7545;52.092;7.006;2023-03-14T02:55:56;2.38;;;0.75;;
14907;SDS011;7545;52.092;7.006;2023-03-14T02:58:22;3.83;;;0.80;;
14907;SDS011;7545;52.092;7.006;2023-03-14T03:00:48;2.78;;;0.90;;
14907;SDS011;7545;52.092;7.006;2023-03-14T03:03:14;3.35;;;1.10;;
14907;SDS011;7545;52.092;7.006;2023-03-14T03:05:40;3.42;;;1.13;;
14907;SDS011;7545;52.092;7.006;2023-03-14T03:08:07;5.60;;;1.95;;
14907;SDS011;7545;52.092;7.006;2023-03-14T03:10:33;4.70;;;1.23;;
14907;SDS011;7545;52.092;7.006;2023-03-14T03:12:59;5.28;;;1.42;;
14907;SDS011;7545;52.092;7.006;2023-03-14T03:15:24;4.32;;;1.30;;
14907;SDS011;7545;52.092;7.006;2023-03-14T03:17:50;3.03;;;0.95;;
14907;SDS011;7545;52.092;7.006;2023-03-14T03:20:16;3.80;;;1.13;;
14907;SDS011;7545;52.092;7.006;2023-03-14T03:22:41;3.55;;;1.00;;
14907;SDS011;7545;52.092;7.006;2023-03-14T03:25:07;4.55;;;0.80;;
14907;SDS011;7545;52.092;7.006;2023-03-14T03:27:35;2.35;;;1.08;;
14907;SDS011;7545;52.092;7.006;2023-03-14T03:30:02;5.05;;;0.85;;
14907;SDS011;7545;52.092;7.006;2023-03-14T03:32:29;7.90;;;1.05;;
14907;SDS011;7545;52.092;7.006;2023-03-14T03:34:55;3.33;;;1.05;;
14907;SDS011;7545;52.092;7.006;2023-03-14T03:37:21;5.38;;;1.05;;
14907;SDS011;7545;52.092;7.006;2023-03-14T03:39:46;6.80;;;0.82;;
14907;SDS011;7545;52.092;7.006;2023-03-14T03:42:12;4.63;;;1.00;;
14907;SDS011;7545;52.092;7.006;2023-03-14T03:44:37;2.42;;;0.80;;
14907;SDS011;7545;52.092;7.006;2023-03-14T03:47:03;2.80;;;0.82;;
14907;SDS011;7545;52.092;7.006;2023-03-14T03:49:29;5.00;;;1.83;;
14907;SDS011;7545;52.092;7.006;2023-03-14T03:51:56;1.55;;;1.05;;
14907;SDS011;7545;52.092;7.006;2023-03-14T03:54:21;2.78;;;0.93;;
14907;SDS011;7545;52.092;7.006;2023-03-14T03:56:47;5.82;;;1.50;;
14907;SDS011;7545;52.092;7.006;2023-03-14T03:59:13;4.95;;;1.10;;
14907;SDS011;7545;52.092;7.006;2023-03-14T04:01:39;4.68;;;1.17;;
14907;SDS011;7545;52.092;7.006;2023-03-14T04:04:04;2.92;;;0.90;;
14907;SDS011;7545;52.092;7.006;2023-03-14T04:06:30;3.58;;;1.00;;
14907;SDS011;7545;52.092;7.006;2023-03-14T04:08:56;7.05;;;1.15;;
14907;SDS011;7545;52.092;7.006;2023-03-14T04:11:21;2.13;;;0.75;;
14907;SDS011;7545;52.092;7.006;2023-03-14T04:13:47;6.25;;;1.27;;
14907;SDS011;7545;52.092;7.006;2023-03-14T04:16:14;5.65;;;0.82;;
14907;SDS011;7545;52.092;7.006;2023-03-14T04:18:46;2.88;;;1.10;;
14907;SDS011;7545;52.092;7.006;2023-03-14T04:21:12;2.13;;;0.80;;
14907;SDS011;7545;52.092;7.006;2023-03-14T04:23:37;2.83;;;1.10;;
14907;SDS011;7545;52.092;7.006;2023-03-14T04:26:03;8.73;;;1.42;;
14907;SDS011;7545;52.092;7.006;2023-03-14T04:28:29;6.25;;;2.17;;
14907;SDS011;7545;52.092;7.006;2023-03-14T04:30:54;5.07;;;0.88;;
14907;SDS011;7545;52.092;7.006;2023-03-14T04:33:20;8.18;;;1.27;;
14907;SDS011;7545;52.092;7.006;2023-03-14T04:35:46;7.45;;;1.15;;
14907;SDS011;7545;52.092;7.006;2023-03-14T04:38:12;6.00;;;1.20;;
14907;SDS011;7545;52.092;7.006;2023-03-14T04:40:39;4.43;;;1.15;;
14907;SDS011;7545;52.092;7.006;2023-03-14T04:43:05;2.63;;;0.82;;
14907;SDS011;7545;52.092;7.006;2023-03-14T04:45:32;5.32;;;1.23;;
14907;SDS011;7545;52.092;7.006;2023-03-14T04:47:58;1.17;;;0.80;;
14907;SDS011;7545;52.092;7.006;2023-03-14T04:50:23;5.07;;;1.67;;
14907;SDS011;7545;52.092;7.006;2023-03-14T04:52:49;2.22;;;1.13;;
14907;SDS011;7545;52.092;7.006;2023-03-14T04:55:14;5.88;;;1.50;;
14907;SDS011;7545;52.092;7.006;2023-03-14T04:57:40;4.28;;;1.10;;
14907;SDS011;7545;52.092;7.006;2023-03-14T05:00:06;6.30;;;1.10;;
14907;SDS011;7545;52.092;7.006;2023-03-14T05:02:32;5.20;;;1.83;;
14907;SDS011;7545;52.092;7.006;2023-03-14T05:04:58;5.18;;;1.40;;
14907;SDS011;7545;52.092;7.006;2023-03-14T05:07:24;3.28;;;1.30;;
14907;SDS011;7545;52.092;7.006;2023-03-14T05:09:50;2.13;;;0.85;;
14907;SDS011;7545;52.092;7.006;2023-03-14T05:12:15;6.50;;;1.20;;
14907;SDS011;7545;52.092;7.006;2023-03-14T05:14:41;6.25;;;1.30;;
14907;SDS011;7545;52.092;7.006;2023-03-14T05:17:07;6.88;;;1.38;;
14907;SDS011;7545;52.092;7.006;2023-03-14T05:19:32;5.35;;;1.40;;
14907;SDS011;7545;52.092;7.006;2023-03-14T05:21:58;3.05;;;1.10;;
14907;SDS011;7545;52.092;7.006;2023-03-14T05:24:23;4.55;;;1.33;;
14907;SDS011;7545;52.092;7.006;2023-03-14T05:26:52;7.68;;;1.23;;
14907;SDS011;7545;52.092;7.006;2023-03-14T05:29:18;6.25;;;1.40;;
14907;SDS011;7545;52.092;7.006;2023-03-14T05:31:44;5.35;;;1.23;;
14907;SDS011;7545;52.092;7.006;2023-03-14T05:34:09;8.05;;;2.15;;
14907;SDS011;7545;52.092;7.006;2023-03-14T05:36:35;4.15;;;1.10;;
14907;SDS011;7545;52.092;7.006;2023-03-14T05:39:01;1.27;;;0.90;;
14907;SDS011;7545;52.092;7.006;2023-03-14T05:41:27;5.45;;;1.38;;
14907;SDS011;7545;52.092;7.006;2023-03-14T05:43:54;4.60;;;1.33;;
14907;SDS011;7545;52.092;7.006;2023-03-14T05:46:19;4.18;;;1.30;;
14907;SDS011;7545;52.092;7.006;2023-03-14T05:48:45;3.40;;;0.90;;
14907;SDS011;7545;52.092;7.006;2023-03-14T05:51:10;5.35;;;1.77;;
14907;SDS011;7545;52.092;7.006;2023-03-14T05:53:36;3.40;;;1.35;;
14907;SDS011;7545;52.092;7.006;2023-03-14T05:56:02;3.10;;;1.67;;
14907;SDS011;7545;52.092;7.006;2023-03-14T05:58:27;2.88;;;0.90;;
14907;SDS011;7545;52.092;7.006;2023-03-14T06:00:53;4.85;;;1.27;;
14907;SDS011;7545;52.092;7.006;2023-03-14T06:03:18;1.67;;;0.70;;
14907;SDS011;7545;52.092;7.006;2023-03-14T06:05:44;3.20;;;1.10;;
14907;SDS011;7545;52.092;7.006;2023-03-14T06:08:10;7.75;;;1.27;;
14907;SDS011;7545;52.092;7.006;2023-03-14T06:10:36;2.75;;;0.88;;
14907;SDS011;7545;52.092;7.006;2023-03-14T06:13:02;2.38;;;1.10;;
14907;SDS011;7545;52.092;7.006;2023-03-14T06:15:28;4.18;;;1.10;;
14907;SDS011;7545;52.092;7.006;2023-03-14T06:17:54;5.63;;;1.00;;
14907;SDS011;7545;52.092;7.006;2023-03-14T06:20:21;2.00;;;0.90;;
14907;SDS011;7545;52.092;7.006;2023-03-14T06:22:46;2.70;;;0.95;;
14907;SDS011;7545;52.092;7.006;2023-03-14T06:25:12;3.45;;;1.00;;
14907;SDS011;7545;52.092;7.006;2023-03-14T06:27:38;2.40;;;0.80;;
14907;SDS011;7545;52.092;7.006;2023-03-14T06:30:03;1.27;;;0.40;;
14907;SDS011;7545;52.092;7.006;2023-03-14T06:32:29;2.45;;;0.55;;
14907;SDS011;7545;52.092;7.006;2023-03-14T06:34:55;3.70;;;0.98;;
14907;SDS011;7545;52.092;7.006;2023-03-14T06:37:22;4.68;;;1.13;;
14907;SDS011;7545;52.092;7.006;2023-03-14T06:39:48;0.93;;;0.55;;
14907;SDS011;7545;52.092;7.006;2023-03-14T06:42:14;3.03;;;0.65;;
14907;SDS011;7545;52.092;7.006;2023-03-14T06:44:40;1.80;;;0.60;;
14907;SDS011;7545;52.092;7.006;2023-03-14T06:47:06;1.45;;;0.77;;
14907;SDS011;7545;52.092;7.006;2023-03-14T06:49:31;3.17;;;0.50;;
14907;SDS011;7545;52.092;7.006;2023-03-14T06:51:57;1.48;;;0.60;;
14907;SDS011;7545;52.092;7.006;2023-03-14T06:54:23;3.78;;;1.13;;
14907;SDS011;7545;52.092;7.006;2023-03-14T06:56:48;4.43;;;1.40;;
14907;SDS011;7545;52.092;7.006;2023-03-14T06:59:14;2.63;;;0.75;;
14907;SDS011;7545;52.092;7.006;2023-03-14T07:01:39;0.93;;;0.55;;
14907;SDS011;7545;52.092;7.006;2023-03-14T07:04:05;1.17;;;0.68;;
14907;SDS011;7545;52.092;7.006;2023-03-14T07:06:31;1.73;;;0.70;;
14907;SDS011;7545;52.092;7.006;2023-03-14T07:08:58;1.40;;;0.90;;
14907;SDS011;7545;52.092;7.006;2023-03-14T07:11:23;1.05;;;0.60;;
14907;SDS011;7545;52.092;7.006;2023-03-14T07:13:49;2.63;;;0.85;;
14907;SDS011;7545;52.092;7.006;2023-03-14T07:16:15;2.20;;;0.60;;
14907;SDS011;7545;52.092;7.006;2023-03-14T07:18:40;1.63;;;0.70;;
14907;SDS011;7545;52.092;7.006;2023-03-14T07:21:06;2.75;;;0.88;;
14907;SDS011;7545;52.092;7.006;2023-03-14T07:23:34;2.35;;;1.00;;
14907;SDS011;7545;52.092;7.006;2023-03-14T07:26:00;2.25;;;0.85;;
14907;SDS011;7545;52.092;7.006;2023-03-14T07:28:26;1.50;;;1.08;;
14907;SDS011;7545;52.092;7.006;2023-03-14T07:30:52;1.13;;;0.80;;
14907;SDS011;7545;52.092;7.006;2023-03-14T07:33:19;0.75;;;0.63;;
14907;SDS011;7545;52.092;7.006;2023-03-14T07:35:46;2.65;;;0.70;;
14907;SDS011;7545;52.092;7.006;2023-03-14T07:38:12;1.15;;;0.80;;
14907;SDS011;7545;52.092;7.006;2023-03-14T07:40:38;2.03;;;0.95;;
14907;SDS011;7545;52.092;7.006;2023-03-14T07:43:04;3.70;;;1.23;;
14907;SDS011;7545;52.092;7.006;2023-03-14T07:45:29;1.73;;;1.20;;
14907;SDS011;7545;52.092;7.006;2023-03-14T07:47:55;2.03;;;0.82;;
14907;SDS011;7545;52.092;7.006;2023-03-14T07:50:22;0.93;;;0.88;;
14907;SDS011;7545;52.092;7.006;2023-03-14T07:52:51;2.03;;;1.20;;
14907;SDS011;7545;52.092;7.006;2023-03-14T07:55:18;3.47;;;0.95;;
14907;SDS011;7545;52.092;7.006;2023-03-14T07:57:44;2.80;;;1.35;;
14907;SDS011;7545;52.092;7.006;2023-03-14T08:00:10;1.33;;;0.90;;
14907;SDS011;7545;52.092;7.006;2023-03-14T08:02:36;5.18;;;1.58;;
14907;SDS011;7545;52.092;7.006;2023-03-14T08:05:08;2.95;;;1.10;;
14907;SDS011;7545;52.092;7.006;2023-03-14T08:07:34;3.35;;;0.90;;
14907;SDS011;7545;52.092;7.006;2023-03-14T08:09:59;2.00;;;1.02;;
14907;SDS011;7545;52.092;7.006;2023-03-14T08:12:25;1.65;;;1.00;;
14907;SDS011;7545;52.092;7.006;2023-03-14T08:14:51;2.28;;;0.90;;
14907;SDS011;7545;52.092;7.006;2023-03-14T08:17:16;2.42;;;1.00;;
14907;SDS011;7545;52.092;7.006;2023-03-14T08:19:42;2.35;;;1.20;;
14907;SDS011;7545;52.092;7.006;2023-03-14T08:22:07;2.30;;;1.05;;
14907;SDS011;7545;52.092;7.006;2023-03-14T08:24:33;1.52;;;0.77;;
14907;SDS011;7545;52.092;7.006;2023-03-14T08:26:59;1.08;;;0.88;;
14907;SDS011;7545;52.092;7.006;2023-03-14T08:29:25;2.92;;;1.00;;
14907;SDS011;7545;52.092;7.006;2023-03-14T08:31:51;2.40;;;0.82;;
14907;SDS011;7545;52.092;7.006;2023-03-14T08:34:16;1.70;;;0.80;;
14907;SDS011;7545;52.092;7.006;2023-03-14T08:36:42;0.70;;;0.70;;
14907;SDS011;7545;52.092;7.006;2023-03-14T08:39:07;1.05;;;0.75;;
14907;SDS011;7545;52.092;7.006;2023-03-14T08:41:33;0.95;;;0.80;;
14907;SDS011;7545;52.092;7.006;2023-03-14T08:44:05;1.63;;;0.73;;
14907;SDS011;7545;52.092;7.006;2023-03-14T08:46:34;2.45;;;1.08;;
14907;SDS011;7545;52.092;7.006;2023-03-14T08:49:00;1.15;;;0.73;;
14907;SDS011;7545;52.092;7.006;2023-03-14T08:51:26;0.40;;;0.22;;
14907;SDS011;7545;52.092;7.006;2023-03-14T08:53:51;1.42;;;0.47;;
14907;SDS011;7545;52.092;7.006;2023-03-14T08:56:17;0.93;;;0.52;;
14907;SDS011;7545;52.092;7.006;2023-03-14T08:58:43;1.02;;;0.40;;
14907;SDS011;7545;52.092;7.006;2023-03-14T09:01:09;0.88;;;0.60;;
14907;SDS011;7545;52.092;7.006;2023-03-14T09:03:35;0.82;;;0.50;;
14907;SDS011;7545;52.092;7.006;2023-03-14T09:06:05;0.98;;;0.40;;
14907;SDS011;7545;52.092;7.006;2023-03-14T09:08:32;0.70;;;0.60;;
14907;SDS011;7545;52.092;7.006;2023-03-14T09:10:58;1.05;;;0.55;;
14907;SDS011;7545;52.092;7.006;2023-03-14T09:13:24;0.82;;;0.43;;
14907;SDS011;7545;52.092;7.006;2023-03-14T09:15:53;0.93;;;0.30;;
14907;SDS011;7545;52.092;7.006;2023-03-14T09:18:21;1.07;;;0.50;;
14907;SDS011;7545;52.092;7.006;2023-03-14T09:20:47;1.00;;;0.60;;
14907;SDS011;7545;52.092;7.006;2023-03-14T09:23:13;1.38;;;0.55;;
14907;SDS011;7545;52.092;7.006;2023-03-14T09:25:39;1.02;;;0.50;;
14907;SDS011;7545;52.092;7.006;2023-03-14T09:28:04;1.33;;;0.60;;
14907;SDS011;7545;52.092;7.006;2023-03-14T09:30:30;1.53;;;0.77;;
14907;SDS011;7545;52.092;7.006;2023-03-14T09:32:56;0.87;;;0.70;;
14907;SDS011;7545;52.092;7.006;2023-03-14T09:35:22;1.23;;;0.60;;
14907;SDS011;7545;52.092;7.006;2023-03-14T09:37:48;0.80;;;0.33;;
14907;SDS011;7545;52.092;7.006;2023-03-14T09:40:17;0.40;;;0.23;;
14907;SDS011;7545;52.092;7.006;2023-03-14T09:42:45;0.57;;;0.33;;
14907;SDS011;7545;52.092;7.006;2023-03-14T09:45:28;0.60;;;0.40;;
14907;SDS011;7545;52.092;7.006;2023-03-14T09:47:58;0.83;;;0.30;;
14907;SDS011;7545;52.092;7.006;2023-03-14T09:50:26;1.53;;;0.30;;
14907;SDS011;7545;52.092;7.006;2023-03-14T09:52:56;1.27;;;0.20;;
14907;SDS011;7545;52.092;7.006;2023-03-14T09:55:28;2.63;;;0.50;;
14907;SDS011;7545;52.092;7.006;2023-03-14T09:57:57;0.40;;;0.30;;
14907;SDS011;7545;52.092;7.006;2023-03-14T10:00:27;1.43;;;0.30;;
14907;SDS011;7545;52.092;7.006;2023-03-14T10:05:24;0.77;;;0.30;;
14907;SDS011;7545;52.092;7.006;2023-03-14T10:07:50;0.60;;;0.53;;
14907;SDS011;7545;52.092;7.006;2023-03-14T10:10:20;0.40;;;0.30;;
14907;SDS011;7545;52.092;7.006;2023-03-14T10:12:49;1.40;;;0.20;;
14907;SDS011;7545;52.092;7.006;2023-03-14T10:15:25;0.50;;;0.23;;
14907;SDS011;7545;52.092;7.006;2023-03-14T10:17:58;1.20;;;0.40;;
14907;SDS011;7545;52.092;7.006;2023-03-14T10:23:01;0.90;;;0.33;;
14907;SDS011;7545;52.092;7.006;2023-03-14T10:25:44;1.20;;;0.50;;
14907;SDS011;7545;52.092;7.006;2023-03-14T10:28:25;1.03;;;0.50;;
14907;SDS011;7545;52.092;7.006;2023-03-14T10:30:57;1.40;;;0.37;;
14907;SDS011;7545;52.092;7.006;2023-03-14T10:33:26;1.17;;;0.57;;
14907;SDS011;7545;52.092;7.006;2023-03-14T10:36:03;0.53;;;0.20;;
14907;SDS011;7545;52.092;7.006;2023-03-14T10:38:33;2.10;;;0.40;;
14907;SDS011;7545;52.092;7.006;2023-03-14T10:41:01;3.17;;;0.30;;
14907;SDS011;7545;52.092;7.006;2023-03-14T10:43:34;0.40;;;0.30;;
14907;SDS011;7545;52.092;7.006;2023-03-14T10:46:05;1.63;;;0.50;;
14907;SDS011;7545;52.092;7.006;2023-03-14T10:48:35;2.83;;;1.13;;
14907;SDS011;7545;52.092;7.006;2023-03-14T10:51:04;2.23;;;0.40;;
14907;SDS011;7545;52.092;7.006;2023-03-14T10:53:43;3.17;;;0.30;;
14907;SDS011;7545;52.092;7.006;2023-03-14T10:56:14;0.90;;;0.60;;
14907;SDS011;7545;52.092;7.006;2023-03-14T10:58:46;1.57;;;0.47;;
14907;SDS011;7545;52.092;7.006;2023-03-14T11:06:48;3.70;;;0.80;;
14907;SDS011;7545;52.092;7.006;2023-03-14T11:09:32;2.43;;;0.53;;
14907;SDS011;7545;52.092;7.006;2023-03-14T11:15:04;4.17;;;0.87;;
14907;SDS011;7545;52.092;7.006;2023-03-14T11:25:26;2.80;;;0.77;;
14907;SDS011;7545;52.092;7.006;2023-03-14T11:28:01;9.07;;;1.40;;
14907;SDS011;7545;52.092;7.006;2023-03-14T11:33:29;1.87;;;0.67;;
14907;SDS011;7545;52.092;7.006;2023-03-14T11:36:09;5.87;;;0.80;;
14907;SDS011;7545;52.092;7.006;2023-03-14T11:43:55;3.67;;;0.90;;
14907;SDS011;7545;52.092;7.006;2023-03-14T11:46:27;8.60;;;2.03;;
14907;SDS011;7545;52.092;7.006;2023-03-14T11:49:11;8.87;;;1.53;;
14907;SDS011;7545;52.092;7.006;2023-03-14T11:51:46;6.33;;;1.53;;
14907;SDS011;7545;52.092;7.006;2023-03-14T11:54:17;11.17;;;1.67;;
14907;SDS011;7545;52.092;7.006;2023-03-14T11:57:01;9.60;;;2.37;;
14907;SDS011;7545;52.092;7.006;2023-03-14T11:59:41;8.90;;;1.90;;
14907;SDS011;7545;52.092;7.006;2023-03-14T12:04:47;5.33;;;1.83;;
14907;SDS011;7545;52.092;7.006;2023-03-14T12:10:38;10.33;;;1.43;;
14907;SDS011;7545;52.092;7.006;2023-03-14T12:13:10;7.07;;;1.90;;
14907;SDS011;7545;52.092;7.006;2023-03-14T12:15:39;11.03;;;2.20;;
14907;SDS011;7545;52.092;7.006;2023-03-14T12:18:18;9.87;;;2.27;;
14907;SDS011;7545;52.092;7.006;2023-03-14T12:20:59;6.33;;;2.10;;
14907;SDS011;7545;52.092;7.006;2023-03-14T12:23:28;10.57;;;2.90;;
14907;SDS011;7545;52.092;7.006;2023-03-14T12:28:37;6.87;;;2.80;;
14907;SDS011;7545;52.092;7.006;2023-03-14T12:34:10;7.83;;;2.07;;
14907;SDS011;7545;52.092;7.006;2023-03-14T12:36:59;9.47;;;1.80;;
14907;SDS011;7545;52.092;7.006;2023-03-14T12:45:23;8.93;;;2.23;;
14907;SDS011;7545;52.092;7.006;2023-03-14T12:50:45;8.30;;;1.80;;
14907;SDS011;7545;52.092;7.006;2023-03-14T12:56:21;8.07;;;1.63;;
14907;SDS011;7545;52.092;7.006;2023-03-14T12:58:57;5.03;;;1.40;;
14907;SDS011;7545;52.092;7.006;2023-03-14T13:01:43;4.90;;;1.20;;
14907;SDS011;7545;52.092;7.006;2023-03-14T13:04:19;6.00;;;1.67;;
14907;SDS011;7545;52.092;7.006;2023-03-14T13:06:57;4.50;;;1.30;;
14907;SDS011;7545;52.092;7.006;2023-03-14T13:12:14;6.77;;;1.63;;
14907;SDS011;7545;52.092;7.006;2023-03-14T13:14:45;7.07;;;1.60;;
14907;SDS011;7545;52.092;7.006;2023-03-14T13:17:19;4.07;;;1.23;;
14907;SDS011;7545;52.092;7.006;2023-03-14T13:19:53;8.07;;;1.97;;
14907;SDS011;7545;52.092;7.006;2023-03-14T13:22:26;5.60;;;1.47;;
14907;SDS011;7545;52.092;7.006;2023-03-14T13:24:59;8.07;;;1.33;;
14907;SDS011;7545;52.092;7.006;2023-03-14T13:27:26;4.77;;;1.67;;
14907;SDS011;7545;52.092;7.006;2023-03-14T13:29:51;5.60;;;1.27;;
14907;SDS011;7545;52.092;7.006;2023-03-14T13:32:19;7.70;;;1.70;;
14907;SDS011;7545;52.092;7.006;2023-03-14T13:34:47;11.60;;;1.75;;
14907;SDS011;7545;52.092;7.006;2023-03-14T13:37:17;6.90;;;2.33;;
14907;SDS011;7545;52.092;7.006;2023-03-14T13:39:49;6.47;;;1.23;;
14907;SDS011;7545;52.092;7.006;2023-03-14T13:42:16;6.43;;;1.80;;
14907;SDS011;7545;52.092;7.006;2023-03-14T13:44:42;6.00;;;1.33;;
14907;SDS011;7545;52.092;7.006;2023-03-14T13:47:12;6.75;;;1.35;;
14907;SDS011;7545;52.092;7.006;2023-03-14T13:49:43;6.53;;;1.10;;
14907;SDS011;7545;52.092;7.006;2023-03-14T13:54:48;4.73;;;1.23;;
14907;SDS011;7545;52.092;7.006;2023-03-14T13:57:17;4.83;;;1.03;;
14907;SDS011;7545;52.092;7.006;2023-03-14T13:59:42;2.97;;;0.83;;
14907;SDS011;7545;52.092;7.006;2023-03-14T14:02:14;2.90;;;1.25;;
14907;SDS011;7545;52.092;7.006;2023-03-14T14:04:40;5.97;;;1.20;;
14907;SDS011;7545;52.092;7.006;2023-03-14T14:07:09;6.63;;;1.63;;
14907;SDS011;7545;52.092;7.006;2023-03-14T14:09:39;3.00;;;1.23;;
14907;SDS011;7545;52.092;7.006;2023-03-14T14:14:39;3.33;;;1.23;;
14907;SDS011;7545;52.092;7.006;2023-03-14T14:17:10;3.42;;;1.27;;
14907;SDS011;7545;52.092;7.006;2023-03-14T14:19:39;4.03;;;0.90;;
14907;SDS011;7545;52.092;7.006;2023-03-14T14:22:08;1.92;;;0.73;;
14907;SDS011;7545;52.092;7.006;2023-03-14T14:24:35;3.37;;;0.77;;
14907;SDS011;7545;52.092;7.006;2023-03-14T14:27:12;6.53;;;1.33;;
14907;SDS011;7545;52.092;7.006;2023-03-14T14:29:43;5.72;;;0.90;;
14907;SDS011;7545;52.092;7.006;2023-03-14T14:34:38;3.45;;;1.20;;
14907;SDS011;7545;52.092;7.006;2023-03-14T14:37:31;3.17;;;1.45;;
14907;SDS011;7545;52.092;7.006;2023-03-14T14:40:00;6.75;;;1.30;;
14907;SDS011;7545;52.092;7.006;2023-03-14T14:42:32;4.13;;;1.25;;
14907;SDS011;7545;52.092;7.006;2023-03-14T14:44:58;3.13;;;2.00;;
14907;SDS011;7545;52.092;7.006;2023-03-14T14:47:25;7.30;;;1.83;;
14907;SDS011;7545;52.092;7.006;2023-03-14T14:49:53;3.07;;;0.80;;
14907;SDS011;7545;52.092;7.006;2023-03-14T14:55:20;5.17;;;1.90;;
14907;SDS011;7545;52.092;7.006;2023-03-14T14:57:52;6.23;;;1.23;;
14907;SDS011;7545;52.092;7.006;2023-03-14T15:00:20;5.30;;;1.43;;
14907;SDS011;7545;52.092;7.006;2023-03-14T15:02:54;1.60;;;0.90;;
14907;SDS011;7545;52.092;7.006;2023-03-14T15:05:24;2.90;;;1.20;;
14907;SDS011;7545;52.092;7.006;2023-03-14T15:07:52;5.70;;;1.13;;
14907;SDS011;7545;52.092;7.006;2023-03-14T15:10:19;2.43;;;0.90;;
14907;SDS011;7545;52.092;7.006;2023-03-14T15:12:46;2.50;;;0.70;;
14907;SDS011;7545;52.092;7.006;2023-03-14T15:15:15;6.17;;;1.23;;
14907;SDS011;7545;52.092;7.006;2023-03-14T15:17:41;5.67;;;1.53;;
14907;SDS011;7545;52.092;7.006;2023-03-14T15:20:12;3.00;;;0.68;;
14907;SDS011;7545;52.092;7.006;2023-03-14T15:22:39;1.95;;;0.85;;
14907;SDS011;7545;52.092;7.006;2023-03-14T15:25:06;3.77;;;1.27;;
14907;SDS011;7545;52.092;7.006;2023-03-14T15:27:32;4.57;;;1.10;;
14907;SDS011;7545;52.092;7.006;2023-03-14T15:29:58;3.10;;;1.23;;
14907;SDS011;7545;52.092;7.006;2023-03-14T15:32:31;1.83;;;0.70;;
14907;SDS011;7545;52.092;7.006;2023-03-14T15:34:56;3.43;;;0.80;;
14907;SDS011;7545;52.092;7.006;2023-03-14T15:37:22;3.33;;;1.00;;
14907;SDS011;7545;52.092;7.006;2023-03-14T15:39:48;3.37;;;1.37;;
14907;SDS011;7545;52.092;7.006;2023-03-14T15:42:14;3.60;;;1.00;;
14907;SDS011;7545;52.092;7.006;2023-03-14T15:44:39;5.03;;;1.00;;
14907;SDS011;7545;52.092;7.006;2023-03-14T15:47:05;5.83;;;0.83;;
14907;SDS011;7545;52.092;7.006;2023-03-14T15:49:33;2.43;;;1.10;;
14907;SDS011;7545;52.092;7.006;2023-03-14T15:51:58;4.27;;;1.30;;
14907;SDS011;7545;52.092;7.006;2023-03-14T15:54:24;5.40;;;1.20;;
14907;SDS011;7545;52.092;7.006;2023-03-14T15:56:56;2.67;;;1.17;;
14907;SDS011;7545;52.092;7.006;2023-03-14T15:59:22;4.63;;;2.20;;
14907;SDS011;7545;52.092;7.006;2023-03-14T16:01:48;3.67;;;1.20;;
14907;SDS011;7545;52.092;7.006;2023-03-14T16:04:14;5.57;;;1.10;;
14907;SDS011;7545;52.092;7.006;2023-03-14T16:06:40;4.27;;;1.50;;
14907;SDS011;7545;52.092;7.006;2023-03-14T16:09:06;9.30;;;0.97;;
14907;SDS011;7545;52.092;7.006;2023-03-14T16:11:31;3.20;;;1.20;;
14907;SDS011;7545;52.092;7.006;2023-03-14T16:13:57;6.07;;;1.60;;
14907;SDS011;7545;52.092;7.006;2023-03-14T16:16:23;5.13;;;1.40;;
14907;SDS011;7545;52.092;7.006;2023-03-14T16:18:48;7.90;;;2.00;;
14907;SDS011;7545;52.092;7.006;2023-03-14T16:21:15;2.43;;;1.23;;